Mol, Belgium
Current Conditions -  °F | °C
As of 3:25 AM on Thursday 27 Nov 2014 (Local Time) from EBDT Reporting Station
Overcast Overcast  
Wind Chill: 45°   Ceiling: 2800
Heat Index: 48°   Visibility: 6mi
Dew Point: 45°   Wind: 7mph
Humidity: 87%   Direction: 150°SSE
Pressure: 29.8"   Gusts: NA
Location:  51.19°N, 5.12°E
Report Text: EBDT 270225Z AUTO 15006KT 9999 BKN028/// OVC033/// 09/07 Q1009 BLU
Loading
Personal Weather Stations






























Interactive Weather Map New forecast layout! Learn more

10-Day Weather Forecast

Advertisements
Track Severe Weather on mobile